sensor_id;sensor_type;location;lat;lon;timestamp;temperature;humidity
10964;DHT22;5534;48.784;9.190;2023-05-15T00:00:06;14.20;99.90
10964;DHT22;5534;48.784;9.190;2023-05-15T00:02:35;14.10;99.90
10964;DHT22;5534;48.784;9.190;2023-05-15T00:05:03;14.10;99.90
10964;DHT22;5534;48.784;9.190;2023-05-15T00:07:29;14.00;99.90
10964;DHT22;5534;48.784;9.190;2023-05-15T00:09:55;14.10;99.90
10964;DHT22;5534;48.784;9.190;2023-05-15T00:12:21;14.00;99.90
10964;DHT22;5534;48.784;9.190;2023-05-15T00:14:46;14.20;99.90
10964;DHT22;5534;48.784;9.190;2023-05-15T00:17:12;14.20;99.90
10964;DHT22;5534;48.784;9.190;2023-05-15T00:19:39;14.30;99.90
10964;DHT22;5534;48.784;9.190;2023-05-15T00:22:05;14.20;99.90
10964;DHT22;5534;48.784;9.190;2023-05-15T00:24:31;14.30;99.90
10964;DHT22;5534;48.784;9.190;2023-05-15T00:26:57;14.20;99.90
10964;DHT22;5534;48.784;9.190;2023-05-15T00:29:23;14.20;99.90
10964;DHT22;5534;48.784;9.190;2023-05-15T00:31:49;14.20;99.90
10964;DHT22;5534;48.784;9.190;2023-05-15T00:34:15;14.20;99.90
10964;DHT22;5534;48.784;9.190;2023-05-15T00:36:41;14.20;99.90
10964;DHT22;5534;48.784;9.190;2023-05-15T00:39:06;14.20;99.90
10964;DHT22;5534;48.784;9.190;2023-05-15T00:41:32;14.10;99.90
10964;DHT22;5534;48.784;9.190;2023-05-15T00:43:59;14.10;99.90
10964;DHT22;5534;48.784;9.190;2023-05-15T00:46:27;14.20;99.90
10964;DHT22;5534;48.784;9.190;2023-05-15T00:48:55;14.20;99.90
10964;DHT22;5534;48.784;9.190;2023-05-15T00:51:22;14.20;99.90
10964;DHT22;5534;48.784;9.190;2023-05-15T00:53:49;14.10;99.90
10964;DHT22;5534;48.784;9.190;2023-05-15T00:56:17;14.20;99.90
10964;DHT22;5534;48.784;9.190;2023-05-15T00:58:45;14.20;99.90
10964;DHT22;5534;48.784;9.190;2023-05-15T01:01:15;14.10;99.90
10964;DHT22;5534;48.784;9.190;2023-05-15T01:03:42;14.10;99.90
10964;DHT22;5534;48.784;9.190;2023-05-15T01:06:09;14.10;99.90
10964;DHT22;5534;48.784;9.190;2023-05-15T01:08:46;14.10;99.90
10964;DHT22;5534;48.784;9.190;2023-05-15T01:11:14;14.10;99.90
10964;DHT22;5534;48.784;9.190;2023-05-15T01:13:41;14.10;99.90
10964;DHT22;5534;48.784;9.190;2023-05-15T01:16:07;14.10;99.90
10964;DHT22;5534;48.784;9.190;2023-05-15T01:18:33;14.10;99.90
10964;DHT22;5534;48.784;9.190;2023-05-15T01:31:49;14.00;99.90
10964;DHT22;5534;48.784;9.190;2023-05-15T01:34:18;13.90;99.90
10964;DHT22;5534;48.784;9.190;2023-05-15T01:36:51;13.90;99.90
10964;DHT22;5534;48.784;9.190;2023-05-15T01:39:19;14.00;99.90
10964;DHT22;5534;48.784;9.190;2023-05-15T01:41:59;14.00;99.90
10964;DHT22;5534;48.784;9.190;2023-05-15T01:44:28;14.00;99.90
10964;DHT22;5534;48.784;9.190;2023-05-15T01:46:57;14.00;99.90
10964;DHT22;5534;48.784;9.190;2023-05-15T01:49:29;14.10;99.90
10964;DHT22;5534;48.784;9.190;2023-05-15T01:52:09;14.10;99.90
10964;DHT22;5534;48.784;9.190;2023-05-15T01:54:37;14.10;99.90
10964;DHT22;5534;48.784;9.190;2023-05-15T01:57:05;14.00;99.90
10964;DHT22;5534;48.784;9.190;2023-05-15T01:59:32;14.00;99.90
10964;DHT22;5534;48.784;9.190;2023-05-15T02:01:59;14.00;99.90
10964;DHT22;5534;48.784;9.190;2023-05-15T02:04:25;14.00;99.90
10964;DHT22;5534;48.784;9.190;2023-05-15T02:06:52;14.10;99.90
10964;DHT22;5534;48.784;9.190;2023-05-15T02:09:22;14.00;99.90
10964;DHT22;5534;48.784;9.190;2023-05-15T02:11:48;14.00;99.90
10964;DHT22;5534;48.784;9.190;2023-05-15T02:14:15;14.00;99.90
10964;DHT22;5534;48.784;9.190;2023-05-15T02:16:42;13.90;99.90
10964;DHT22;5534;48.784;9.190;2023-05-15T02:19:07;14.00;99.90
10964;DHT22;5534;48.784;9.190;2023-05-15T02:21:34;13.80;99.90
10964;DHT22;5534;48.784;9.190;2023-05-15T02:24:00;13.90;99.90
10964;DHT22;5534;48.784;9.190;2023-05-15T02:26:58;13.90;99.90
10964;DHT22;5534;48.784;9.190;2023-05-15T02:32:25;13.90;99.90
10964;DHT22;5534;48.784;9.190;2023-05-15T02:35:08;13.90;99.90
10964;DHT22;5534;48.784;9.190;2023-05-15T02:37:41;13.80;99.90
10964;DHT22;5534;48.784;9.190;2023-05-15T02:40:12;13.80;99.90
10964;DHT22;5534;48.784;9.190;2023-05-15T02:42:40;13.80;99.90
10964;DHT22;5534;48.784;9.190;2023-05-15T02:45:08;13.80;99.90
10964;DHT22;5534;48.784;9.190;2023-05-15T02:47:35;13.80;99.90
10964;DHT22;5534;48.784;9.190;2023-05-15T02:50:02;13.30;99.90
10964;DHT22;5534;48.784;9.190;2023-05-15T02:52:28;13.30;99.90
10964;DHT22;5534;48.784;9.190;2023-05-15T02:54:54;13.40;99.90
10964;DHT22;5534;48.784;9.190;2023-05-15T02:57:20;13.50;99.90
10964;DHT22;5534;48.784;9.190;2023-05-15T02:59:45;13.60;99.90
10964;DHT22;5534;48.784;9.190;2023-05-15T03:02:11;13.60;99.90
10964;DHT22;5534;48.784;9.190;2023-05-15T03:04:37;13.90;99.90
10964;DHT22;5534;48.784;9.190;2023-05-15T03:07:03;13.80;99.90
10964;DHT22;5534;48.784;9.190;2023-05-15T03:09:28;13.90;99.90
10964;DHT22;5534;48.784;9.190;2023-05-15T03:11:54;13.90;99.90
10964;DHT22;5534;48.784;9.190;2023-05-15T03:14:20;13.90;99.90
10964;DHT22;5534;48.784;9.190;2023-05-15T03:16:46;13.90;99.90
10964;DHT22;5534;48.784;9.190;2023-05-15T03:19:12;14.10;99.90
10964;DHT22;5534;48.784;9.190;2023-05-15T03:21:37;14.00;99.90
10964;DHT22;5534;48.784;9.190;2023-05-15T03:24:03;13.70;99.90
10964;DHT22;5534;48.784;9.190;2023-05-15T03:26:29;13.90;99.90
10964;DHT22;5534;48.784;9.190;2023-05-15T03:28:56;13.90;99.90
10964;DHT22;5534;48.784;9.190;2023-05-15T03:31:22;14.00;99.90
10964;DHT22;5534;48.784;9.190;2023-05-15T03:33:47;14.00;99.90
10964;DHT22;5534;48.784;9.190;2023-05-15T03:36:15;14.00;99.90
10964;DHT22;5534;48.784;9.190;2023-05-15T03:38:40;14.10;99.90
10964;DHT22;5534;48.784;9.190;2023-05-15T03:41:09;14.10;99.90
10964;DHT22;5534;48.784;9.190;2023-05-15T03:43:35;14.00;99.90
10964;DHT22;5534;48.784;9.190;2023-05-15T03:46:00;14.00;99.90
10964;DHT22;5534;48.784;9.190;2023-05-15T03:48:26;14.10;99.90
10964;DHT22;5534;48.784;9.190;2023-05-15T03:50:52;13.90;99.90
10964;DHT22;5534;48.784;9.190;2023-05-15T03:53:18;14.00;99.90
10964;DHT22;5534;48.784;9.190;2023-05-15T03:55:44;14.00;99.90
10964;DHT22;5534;48.784;9.190;2023-05-15T03:58:10;14.10;99.90
10964;DHT22;5534;48.784;9.190;2023-05-15T04:00:35;14.10;99.90
10964;DHT22;5534;48.784;9.190;2023-05-15T04:03:01;14.10;99.90
10964;DHT22;5534;48.784;9.190;2023-05-15T04:05:27;14.10;99.90
10964;DHT22;5534;48.784;9.190;2023-05-15T04:07:53;14.10;99.90
10964;DHT22;5534;48.784;9.190;2023-05-15T04:10:19;14.10;99.90
10964;DHT22;5534;48.784;9.190;2023-05-15T04:12:44;14.20;99.90
10964;DHT22;5534;48.784;9.190;2023-05-15T04:17:47;13.90;99.90
10964;DHT22;5534;48.784;9.190;2023-05-15T04:20:14;14.10;99.90
10964;DHT22;5534;48.784;9.190;2023-05-15T04:22:41;14.20;99.90
10964;DHT22;5534;48.784;9.190;2023-05-15T04:25:08;14.10;99.90
10964;DHT22;5534;48.784;9.190;2023-05-15T04:27:36;14.10;99.90
10964;DHT22;5534;48.784;9.190;2023-05-15T04:30:03;14.10;99.90
10964;DHT22;5534;48.784;9.190;2023-05-15T04:32:30;14.20;99.90
10964;DHT22;5534;48.784;9.190;2023-05-15T04:34:57;14.20;99.90
10964;DHT22;5534;48.784;9.190;2023-05-15T04:37:23;14.10;99.90
10964;DHT22;5534;48.784;9.190;2023-05-15T04:39:48;14.10;99.90
10964;DHT22;5534;48.784;9.190;2023-05-15T04:42:14;14.00;99.90
10964;DHT22;5534;48.784;9.190;2023-05-15T04:44:40;13.80;99.90
10964;DHT22;5534;48.784;9.190;2023-05-15T04:47:05;14.10;99.90
10964;DHT22;5534;48.784;9.190;2023-05-15T04:49:31;14.30;99.90
10964;DHT22;5534;48.784;9.190;2023-05-15T04:51:57;14.40;99.90
10964;DHT22;5534;48.784;9.190;2023-05-15T04:54:22;14.30;99.90
10964;DHT22;5534;48.784;9.190;2023-05-15T04:56:48;14.40;99.90
10964;DHT22;5534;48.784;9.190;2023-05-15T04:59:14;14.40;99.90
10964;DHT22;5534;48.784;9.190;2023-05-15T05:01:40;14.50;99.90
10964;DHT22;5534;48.784;9.190;2023-05-15T05:04:06;14.60;99.90
10964;DHT22;5534;48.784;9.190;2023-05-15T05:06:32;14.60;99.90
10964;DHT22;5534;48.784;9.190;2023-05-15T05:08:57;14.60;99.90
10964;DHT22;5534;48.784;9.190;2023-05-15T05:11:23;14.60;99.90
10964;DHT22;5534;48.784;9.190;2023-05-15T05:13:50;14.70;99.90
10964;DHT22;5534;48.784;9.190;2023-05-15T05:16:16;14.70;99.90
10964;DHT22;5534;48.784;9.190;2023-05-15T05:18:42;14.50;99.90
10964;DHT22;5534;48.784;9.190;2023-05-15T05:21:07;14.60;99.90
10964;DHT22;5534;48.784;9.190;2023-05-15T05:23:33;14.60;99.90
10964;DHT22;5534;48.784;9.190;2023-05-15T05:25:59;14.90;99.90
10964;DHT22;5534;48.784;9.190;2023-05-15T05:28:25;15.00;99.90
10964;DHT22;5534;48.784;9.190;2023-05-15T05:30:51;14.90;99.90
10964;DHT22;5534;48.784;9.190;2023-05-15T05:33:18;14.90;99.90
10964;DHT22;5534;48.784;9.190;2023-05-15T05:35:44;14.80;99.90
10964;DHT22;5534;48.784;9.190;2023-05-15T05:38:09;15.00;99.90
10964;DHT22;5534;48.784;9.190;2023-05-15T05:40:35;15.00;99.90
10964;DHT22;5534;48.784;9.190;2023-05-15T05:43:03;15.00;99.90
10964;DHT22;5534;48.784;9.190;2023-05-15T05:45:29;15.00;99.90
10964;DHT22;5534;48.784;9.190;2023-05-15T05:47:55;15.00;99.90
10964;DHT22;5534;48.784;9.190;2023-05-15T05:50:22;15.20;99.90
10964;DHT22;5534;48.784;9.190;2023-05-15T05:52:49;15.20;99.90
10964;DHT22;5534;48.784;9.190;2023-05-15T05:55:15;15.20;99.90
10964;DHT22;5534;48.784;9.190;2023-05-15T05:57:41;15.30;99.90
10964;DHT22;5534;48.784;9.190;2023-05-15T06:00:07;15.20;99.90
10964;DHT22;5534;48.784;9.190;2023-05-15T06:02:35;15.10;99.90
10964;DHT22;5534;48.784;9.190;2023-05-15T06:05:01;15.10;99.90
10964;DHT22;5534;48.784;9.190;2023-05-15T06:07:28;14.90;99.90
10964;DHT22;5534;48.784;9.190;2023-05-15T06:09:53;14.90;99.90
10964;DHT22;5534;48.784;9.190;2023-05-15T06:12:19;14.90;99.90
10964;DHT22;5534;48.784;9.190;2023-05-15T06:14:45;15.00;99.90
10964;DHT22;5534;48.784;9.190;2023-05-15T06:17:11;15.10;99.90
10964;DHT22;5534;48.784;9.190;2023-05-15T06:19:37;15.50;99.90
10964;DHT22;5534;48.784;9.190;2023-05-15T06:22:03;16.80;99.90
10964;DHT22;5534;48.784;9.190;2023-05-15T06:24:28;17.60;99.90
10964;DHT22;5534;48.784;9.190;2023-05-15T06:26:54;18.80;99.90
10964;DHT22;5534;48.784;9.190;2023-05-15T06:29:20;20.80;99.90
10964;DHT22;5534;48.784;9.190;2023-05-15T06:31:46;21.70;99.90
10964;DHT22;5534;48.784;9.190;2023-05-15T06:34:12;23.20;99.90
10964;DHT22;5534;48.784;9.190;2023-05-15T06:36:38;24.00;99.90
10964;DHT22;5534;48.784;9.190;2023-05-15T06:39:04;24.30;99.90
10964;DHT22;5534;48.784;9.190;2023-05-15T06:41:31;25.20;99.90
10964;DHT22;5534;48.784;9.190;2023-05-15T06:43:56;24.70;99.90
10964;DHT22;5534;48.784;9.190;2023-05-15T06:46:23;25.70;99.90
10964;DHT22;5534;48.784;9.190;2023-05-15T06:48:49;26.10;99.90
10964;DHT22;5534;48.784;9.190;2023-05-15T06:51:15;25.50;99.90
10964;DHT22;5534;48.784;9.190;2023-05-15T06:53:41;25.00;99.90
10964;DHT22;5534;48.784;9.190;2023-05-15T06:56:07;24.10;99.90
10964;DHT22;5534;48.784;9.190;2023-05-15T06:58:33;23.80;99.90
10964;DHT22;5534;48.784;9.190;2023-05-15T07:01:00;23.40;99.90
10964;DHT22;5534;48.784;9.190;2023-05-15T07:03:28;23.00;99.90
10964;DHT22;5534;48.784;9.190;2023-05-15T07:05:54;22.40;99.90
10964;DHT22;5534;48.784;9.190;2023-05-15T07:08:20;22.00;99.90
10964;DHT22;5534;48.784;9.190;2023-05-15T07:10:47;22.80;99.90
10964;DHT22;5534;48.784;9.190;2023-05-15T07:13:12;22.40;99.90
10964;DHT22;5534;48.784;9.190;2023-05-15T07:15:38;21.50;99.90
10964;DHT22;5534;48.784;9.190;2023-05-15T07:18:05;21.20;99.90
10964;DHT22;5534;48.784;9.190;2023-05-15T07:20:30;21.30;99.90
10964;DHT22;5534;48.784;9.190;2023-05-15T07:22:56;21.30;99.90
10964;DHT22;5534;48.784;9.190;2023-05-15T07:25:23;20.80;99.90
10964;DHT22;5534;48.784;9.190;2023-05-15T07:27:48;20.30;99.90
10964;DHT22;5534;48.784;9.190;2023-05-15T07:30:14;19.90;99.90
10964;DHT22;5534;48.784;9.190;2023-05-15T07:32:40;19.70;99.90
10964;DHT22;5534;48.784;9.190;2023-05-15T07:35:06;19.80;99.90
10964;DHT22;5534;48.784;9.190;2023-05-15T07:37:32;20.40;99.90
10964;DHT22;5534;48.784;9.190;2023-05-15T07:39:58;21.20;99.90
10964;DHT22;5534;48.784;9.190;2023-05-15T07:42:24;21.70;99.90
10964;DHT22;5534;48.784;9.190;2023-05-15T07:44:50;21.70;99.90
10964;DHT22;5534;48.784;9.190;2023-05-15T07:47:16;21.40;99.90
10964;DHT22;5534;48.784;9.190;2023-05-15T07:49:42;21.10;99.90
10964;DHT22;5534;48.784;9.190;2023-05-15T07:52:07;20.90;99.90
10964;DHT22;5534;48.784;9.190;2023-05-15T07:54:33;20.80;99.90
10964;DHT22;5534;48.784;9.190;2023-05-15T07:56:59;20.90;99.90
10964;DHT22;5534;48.784;9.190;2023-05-15T08:02:31;21.40;99.90
10964;DHT22;5534;48.784;9.190;2023-05-15T08:04:57;21.10;99.90
10964;DHT22;5534;48.784;9.190;2023-05-15T08:07:23;21.00;99.90
10964;DHT22;5534;48.784;9.190;2023-05-15T08:09:49;21.10;99.90
10964;DHT22;5534;48.784;9.190;2023-05-15T08:12:23;20.20;99.90
10964;DHT22;5534;48.784;9.190;2023-05-15T08:14:50;19.80;99.90
10964;DHT22;5534;48.784;9.190;2023-05-15T08:17:16;20.10;99.90
10964;DHT22;5534;48.784;9.190;2023-05-15T08:19:42;20.50;99.90
10964;DHT22;5534;48.784;9.190;2023-05-15T08:22:10;20.40;99.90
10964;DHT22;5534;48.784;9.190;2023-05-15T08:24:37;20.50;99.90
10964;DHT22;5534;48.784;9.190;2023-05-15T08:27:04;20.20;99.90
10964;DHT22;5534;48.784;9.190;2023-05-15T08:29:37;20.30;99.90
10964;DHT22;5534;48.784;9.190;2023-05-15T08:32:04;20.00;99.90
10964;DHT22;5534;48.784;9.190;2023-05-15T08:34:30;20.10;99.90
10964;DHT22;5534;48.784;9.190;2023-05-15T08:36:58;19.90;99.90
10964;DHT22;5534;48.784;9.190;2023-05-15T08:39:24;19.90;99.90
10964;DHT22;5534;48.784;9.190;2023-05-15T08:41:55;19.90;99.90
10964;DHT22;5534;48.784;9.190;2023-05-15T08:44:23;20.00;99.90
10964;DHT22;5534;48.784;9.190;2023-05-15T08:46:49;20.10;99.90
10964;DHT22;5534;48.784;9.190;2023-05-15T08:51:52;19.60;99.90
10964;DHT22;5534;48.784;9.190;2023-05-15T08:54:18;19.50;99.90
10964;DHT22;5534;48.784;9.190;2023-05-15T08:56:44;19.60;99.90
10964;DHT22;5534;48.784;9.190;2023-05-15T08:59:11;19.60;99.90
10964;DHT22;5534;48.784;9.190;2023-05-15T09:01:37;19.90;99.90
10964;DHT22;5534;48.784;9.190;2023-05-15T09:04:03;19.70;99.90
10964;DHT22;5534;48.784;9.190;2023-05-15T09:06:30;19.90;99.90
10964;DHT22;5534;48.784;9.190;2023-05-15T09:08:57;19.90;99.90
10964;DHT22;5534;48.784;9.190;2023-05-15T09:11:26;20.00;99.90
10964;DHT22;5534;48.784;9.190;2023-05-15T09:13:57;19.80;99.90
10964;DHT22;5534;48.784;9.190;2023-05-15T09:16:23;19.60;99.90
10964;DHT22;5534;48.784;9.190;2023-05-15T09:18:48;19.40;99.90
10964;DHT22;5534;48.784;9.190;2023-05-15T09:21:25;19.10;99.90
10964;DHT22;5534;48.784;9.190;2023-05-15T09:23:56;18.90;99.90
10964;DHT22;5534;48.784;9.190;2023-05-15T09:26:39;18.80;99.90
10964;DHT22;5534;48.784;9.190;2023-05-15T09:29:06;18.60;99.90
10964;DHT22;5534;48.784;9.190;2023-05-15T09:31:32;18.40;99.90
10964;DHT22;5534;48.784;9.190;2023-05-15T09:33:59;18.50;99.90
10964;DHT22;5534;48.784;9.190;2023-05-15T09:36:30;18.30;99.90
10964;DHT22;5534;48.784;9.190;2023-05-15T09:38:58;18.40;99.90
10964;DHT22;5534;48.784;9.190;2023-05-15T09:41:25;18.80;99.90
10964;DHT22;5534;48.784;9.190;2023-05-15T09:43:52;19.20;99.90
10964;DHT22;5534;48.784;9.190;2023-05-15T09:46:19;19.40;99.90
10964;DHT22;5534;48.784;9.190;2023-05-15T09:48:45;19.40;99.90
10964;DHT22;5534;48.784;9.190;2023-05-15T09:51:15;19.40;99.90
10964;DHT22;5534;48.784;9.190;2023-05-15T09:53:56;19.50;99.90
10964;DHT22;5534;48.784;9.190;2023-05-15T09:56:21;19.40;99.90
10964;DHT22;5534;48.784;9.190;2023-05-15T09:58:55;19.50;99.90
10964;DHT22;5534;48.784;9.190;2023-05-15T10:01:25;19.40;99.90
10964;DHT22;5534;48.784;9.190;2023-05-15T10:04:02;19.60;99.90
10964;DHT22;5534;48.784;9.190;2023-05-15T10:06:35;19.80;99.90
10964;DHT22;5534;48.784;9.190;2023-05-15T10:09:02;19.70;99.90
10964;DHT22;5534;48.784;9.190;2023-05-15T10:11:29;19.50;99.90
10964;DHT22;5534;48.784;9.190;2023-05-15T10:13:57;19.30;99.90
10964;DHT22;5534;48.784;9.190;2023-05-15T10:16:24;19.30;99.90
10964;DHT22;5534;48.784;9.190;2023-05-15T10:18:51;19.40;99.90
10964;DHT22;5534;48.784;9.190;2023-05-15T10:21:19;19.50;99.90
10964;DHT22;5534;48.784;9.190;2023-05-15T10:23:46;19.70;99.90
10964;DHT22;5534;48.784;9.190;2023-05-15T10:26:38;19.80;99.90
10964;DHT22;5534;48.784;9.190;2023-05-15T10:29:16;19.80;99.90
10964;DHT22;5534;48.784;9.190;2023-05-15T10:31:42;20.00;99.90
10964;DHT22;5534;48.784;9.190;2023-05-15T10:34:09;20.10;99.90
10964;DHT22;5534;48.784;9.190;2023-05-15T10:36:36;20.00;99.90
10964;DHT22;5534;48.784;9.190;2023-05-15T10:39:04;19.90;99.90
10964;DHT22;5534;48.784;9.190;2023-05-15T10:41:38;19.90;99.90
10964;DHT22;5534;48.784;9.190;2023-05-15T10:44:04;20.00;99.90
10964;DHT22;5534;48.784;9.190;2023-05-15T10:46:33;20.00;99.90
10964;DHT22;5534;48.784;9.190;2023-05-15T10:49:00;19.90;99.90
10964;DHT22;5534;48.784;9.190;2023-05-15T10:51:27;19.80;99.90
10964;DHT22;5534;48.784;9.190;2023-05-15T10:53:55;19.90;99.90
10964;DHT22;5534;48.784;9.190;2023-05-15T10:56:26;20.00;99.90
10964;DHT22;5534;48.784;9.190;2023-05-15T10:58:54;20.20;99.90
10964;DHT22;5534;48.784;9.190;2023-05-15T11:01:29;20.20;99.90
10964;DHT22;5534;48.784;9.190;2023-05-15T11:04:12;20.50;99.90
10964;DHT22;5534;48.784;9.190;2023-05-15T11:06:43;20.50;99.90
10964;DHT22;5534;48.784;9.190;2023-05-15T11:11:55;20.10;99.90
10964;DHT22;5534;48.784;9.190;2023-05-15T11:14:25;20.00;99.90
10964;DHT22;5534;48.784;9.190;2023-05-15T11:24:58;20.20;99.90
10964;DHT22;5534;48.784;9.190;2023-05-15T11:30:21;19.90;99.90
10964;DHT22;5534;48.784;9.190;2023-05-15T11:32:59;19.70;99.90
10964;DHT22;5534;48.784;9.190;2023-05-15T11:35:39;19.70;99.90
10964;DHT22;5534;48.784;9.190;2023-05-15T11:38:17;19.70;99.90
10964;DHT22;5534;48.784;9.190;2023-05-15T11:40:59;19.70;99.90
10964;DHT22;5534;48.784;9.190;2023-05-15T11:43:36;19.70;99.90
10964;DHT22;5534;48.784;9.190;2023-05-15T11:46:06;19.90;99.90
10964;DHT22;5534;48.784;9.190;2023-05-15T11:48:34;20.20;99.90
10964;DHT22;5534;48.784;9.190;2023-05-15T11:51:00;20.20;99.90
10964;DHT22;5534;48.784;9.190;2023-05-15T11:53:28;20.20;99.90
10964;DHT22;5534;48.784;9.190;2023-05-15T11:55:54;20.10;99.90
10964;DHT22;5534;48.784;9.190;2023-05-15T11:58:21;20.00;99.90
10964;DHT22;5534;48.784;9.190;2023-05-15T12:00:48;20.00;99.90
10964;DHT22;5534;48.784;9.190;2023-05-15T12:03:25;20.00;99.90
10964;DHT22;5534;48.784;9.190;2023-05-15T12:05:52;20.10;99.90
10964;DHT22;5534;48.784;9.190;2023-05-15T12:08:19;20.20;99.90
10964;DHT22;5534;48.784;9.190;2023-05-15T12:10:48;20.40;99.90
10964;DHT22;5534;48.784;9.190;2023-05-15T12:13:16;20.60;99.90
10964;DHT22;5534;48.784;9.190;2023-05-15T12:15:45;20.70;99.90
10964;DHT22;5534;48.784;9.190;2023-05-15T12:18:11;20.70;99.90
10964;DHT22;5534;48.784;9.190;2023-05-15T12:20:39;20.70;99.90
10964;DHT22;5534;48.784;9.190;2023-05-15T12:23:09;20.80;99.90
10964;DHT22;5534;48.784;9.190;2023-05-15T12:25:36;20.80;99.90
10964;DHT22;5534;48.784;9.190;2023-05-15T12:28:03;20.70;99.90
10964;DHT22;5534;48.784;9.190;2023-05-15T12:30:31;20.90;99.90
10964;DHT22;5534;48.784;9.190;2023-05-15T12:33:02;21.10;99.90
10964;DHT22;5534;48.784;9.190;2023-05-15T12:35:29;21.00;99.90
10964;DHT22;5534;48.784;9.190;2023-05-15T12:37:55;20.80;99.90
10964;DHT22;5534;48.784;9.190;2023-05-15T12:40:22;20.70;99.90
10964;DHT22;5534;48.784;9.190;2023-05-15T12:42:51;20.70;99.90
10964;DHT22;5534;48.784;9.190;2023-05-15T12:45:19;21.00;99.90
10964;DHT22;5534;48.784;9.190;2023-05-15T12:47:47;21.20;99.90
10964;DHT22;5534;48.784;9.190;2023-05-15T12:50:15;21.20;99.90
10964;DHT22;5534;48.784;9.190;2023-05-15T12:52:58;21.10;99.90
10964;DHT22;5534;48.784;9.190;2023-05-15T12:55:32;20.70;99.90
10964;DHT22;5534;48.784;9.190;2023-05-15T12:58:10;20.60;99.90
10964;DHT22;5534;48.784;9.190;2023-05-15T13:00:39;20.50;99.90
10964;DHT22;5534;48.784;9.190;2023-05-15T13:03:08;20.40;99.90
10964;DHT22;5534;48.784;9.190;2023-05-15T13:05:35;20.30;99.90
10964;DHT22;5534;48.784;9.190;2023-05-15T13:08:03;20.10;99.90
10964;DHT22;5534;48.784;9.190;2023-05-15T13:10:32;19.90;99.90
10964;DHT22;5534;48.784;9.190;2023-05-15T13:13:00;19.80;99.90
10964;DHT22;5534;48.784;9.190;2023-05-15T13:20:33;20.00;99.90
10964;DHT22;5534;48.784;9.190;2023-05-15T13:23:00;20.10;99.90
10964;DHT22;5534;48.784;9.190;2023-05-15T13:25:26;20.10;99.90
10964;DHT22;5534;48.784;9.190;2023-05-15T13:27:52;20.10;99.90
10964;DHT22;5534;48.784;9.190;2023-05-15T13:30:18;20.00;99.90
10964;DHT22;5534;48.784;9.190;2023-05-15T13:32:44;19.90;99.90
10964;DHT22;5534;48.784;9.190;2023-05-15T13:35:10;19.80;99.90
10964;DHT22;5534;48.784;9.190;2023-05-15T13:37:36;19.70;99.90
10964;DHT22;5534;48.784;9.190;2023-05-15T13:40:03;19.70;99.90
10964;DHT22;5534;48.784;9.190;2023-05-15T13:42:38;19.70;99.90
10964;DHT22;5534;48.784;9.190;2023-05-15T13:45:09;19.70;99.90
10964;DHT22;5534;48.784;9.190;2023-05-15T13:47:35;19.70;99.90
10964;DHT22;5534;48.784;9.190;2023-05-15T13:50:05;19.70;99.90
10964;DHT22;5534;48.784;9.190;2023-05-15T13:52:31;19.70;99.90
10964;DHT22;5534;48.784;9.190;2023-05-15T13:54:56;19.60;99.90
10964;DHT22;5534;48.784;9.190;2023-05-15T13:57:22;19.60;99.90
10964;DHT22;5534;48.784;9.190;2023-05-15T13:59:48;19.50;99.90
10964;DHT22;5534;48.784;9.190;2023-05-15T14:02:14;19.40;99.90
10964;DHT22;5534;48.784;9.190;2023-05-15T14:04:40;19.40;99.90
10964;DHT22;5534;48.784;9.190;2023-05-15T14:07:05;19.20;99.90
10964;DHT22;5534;48.784;9.190;2023-05-15T14:09:31;19.30;99.90
10964;DHT22;5534;48.784;9.190;2023-05-15T14:11:57;19.30;99.90
10964;DHT22;5534;48.784;9.190;2023-05-15T14:14:23;19.30;99.90
10964;DHT22;5534;48.784;9.190;2023-05-15T14:16:49;19.20;99.90
10964;DHT22;5534;48.784;9.190;2023-05-15T14:19:14;19.20;99.90
10964;DHT22;5534;48.784;9.190;2023-05-15T14:21:41;19.20;99.90
10964;DHT22;5534;48.784;9.190;2023-05-15T14:24:06;19.20;99.90
10964;DHT22;5534;48.784;9.190;2023-05-15T14:26:32;19.30;99.90
10964;DHT22;5534;48.784;9.190;2023-05-15T14:28:58;19.30;99.90
10964;DHT22;5534;48.784;9.190;2023-05-15T14:31:24;19.30;99.90
10964;DHT22;5534;48.784;9.190;2023-05-15T14:33:51;19.30;99.90
10964;DHT22;5534;48.784;9.190;2023-05-15T14:36:17;19.30;99.90
10964;DHT22;5534;48.784;9.190;2023-05-15T14:38:42;19.30;99.90
10964;DHT22;5534;48.784;9.190;2023-05-15T14:41:11;19.30;99.90
10964;DHT22;5534;48.784;9.190;2023-05-15T14:43:36;19.30;99.90
10964;DHT22;5534;48.784;9.190;2023-05-15T14:46:03;19.40;99.90
10964;DHT22;5534;48.784;9.190;2023-05-15T14:48:29;19.40;99.90
10964;DHT22;5534;48.784;9.190;2023-05-15T14:50:55;19.50;99.90
10964;DHT22;5534;48.784;9.190;2023-05-15T14:53:21;19.50;99.90
10964;DHT22;5534;48.784;9.190;2023-05-15T14:55:47;19.60;99.90
10964;DHT22;5534;48.784;9.190;2023-05-15T14:58:13;19.50;99.90
10964;DHT22;5534;48.784;9.190;2023-05-15T15:00:39;19.50;99.90
10964;DHT22;5534;48.784;9.190;2023-05-15T15:03:04;19.60;99.90
10964;DHT22;5534;48.784;9.190;2023-05-15T15:05:30;19.70;99.90
10964;DHT22;5534;48.784;9.190;2023-05-15T15:10:22;19.60;99.90
10964;DHT22;5534;48.784;9.190;2023-05-15T15:12:50;19.40;99.90
10964;DHT22;5534;48.784;9.190;2023-05-15T15:15:16;19.30;99.90
10964;DHT22;5534;48.784;9.190;2023-05-15T15:17:41;19.20;99.90
10964;DHT22;5534;48.784;9.190;2023-05-15T15:20:08;19.10;99.90
10964;DHT22;5534;48.784;9.190;2023-05-15T15:22:34;19.00;99.90
10964;DHT22;5534;48.784;9.190;2023-05-15T15:25:00;18.80;99.90
10964;DHT22;5534;48.784;9.190;2023-05-15T15:27:26;18.70;99.90
10964;DHT22;5534;48.784;9.190;2023-05-15T15:29:52;18.60;99.90
10964;DHT22;5534;48.784;9.190;2023-05-15T15:32:20;18.50;99.90
10964;DHT22;5534;48.784;9.190;2023-05-15T15:34:45;18.50;99.90
10964;DHT22;5534;48.784;9.190;2023-05-15T15:37:11;18.60;99.90
10964;DHT22;5534;48.784;9.190;2023-05-15T15:39:37;18.60;99.90
10964;DHT22;5534;48.784;9.190;2023-05-15T15:42:03;18.60;99.90
10964;DHT22;5534;48.784;9.190;2023-05-15T15:44:28;18.50;99.90
10964;DHT22;5534;48.784;9.190;2023-05-15T15:46:54;18.60;99.90
10964;DHT22;5534;48.784;9.190;2023-05-15T15:49:20;18.60;99.90
10964;DHT22;5534;48.784;9.190;2023-05-15T15:51:46;18.40;99.90
10964;DHT22;5534;48.784;9.190;2023-05-15T15:54:12;18.00;99.90
10964;DHT22;5534;48.784;9.190;2023-05-15T15:56:38;18.00;99.90
10964;DHT22;5534;48.784;9.190;2023-05-15T15:59:04;17.80;99.90
10964;DHT22;5534;48.784;9.190;2023-05-15T16:01:30;17.90;99.90
10964;DHT22;5534;48.784;9.190;2023-05-15T16:03:57;17.80;99.90
10964;DHT22;5534;48.784;9.190;2023-05-15T16:06:22;17.70;99.90
10964;DHT22;5534;48.784;9.190;2023-05-15T16:08:48;17.60;99.90
10964;DHT22;5534;48.784;9.190;2023-05-15T16:11:14;17.50;99.90
10964;DHT22;5534;48.784;9.190;2023-05-15T16:13:40;17.50;99.90
10964;DHT22;5534;48.784;9.190;2023-05-15T16:16:06;17.40;99.90
10964;DHT22;5534;48.784;9.190;2023-05-15T16:18:34;17.40;99.90
10964;DHT22;5534;48.784;9.190;2023-05-15T16:21:02;17.60;99.90
10964;DHT22;5534;48.784;9.190;2023-05-15T16:23:32;17.60;99.90
10964;DHT22;5534;48.784;9.190;2023-05-15T16:25:58;17.60;99.90
10964;DHT22;5534;48.784;9.190;2023-05-15T16:28:24;17.60;99.90